Time;durP1;ratioP1;P1;durP2;ratioP2;P2;SDS_P1;SDS_P2;PMS_P1;PMS_P2;Temp;Humidity;BMP_temperature;BMP_pressure;BME280_temperature;BME280_humidity;BME280_pressure;Samples;Min_cycle;Max_cycle;Signal;HPM_P1;HPM_P2
2023/12/05 00:01:50;;;;;;;19.13;14.50;;;1.80;1.00;;;;;;7384942;19;20018;-69
2023/12/05 00:04:20;;;;;;;21.27;14.77;;;1.80;1.00;;;;;;7383076;19;20375;-68
2023/12/05 00:06:50;;;;;;;30.48;19.85;;;1.80;1.00;;;;;;7384024;19;20013;-69
2023/12/05 00:09:20;;;;;;;23.63;15.52;;;1.80;1.00;;;;;;7384527;19;20414;-68
2023/12/05 00:11:50;;;;;;;22.85;15.60;;;1.80;1.00;;;;;;7383290;19;20006;-69
2023/12/05 00:14:23;;;;;;;20.77;14.77;;;1.80;1.00;;;;;;7383146;19;20019;-69
2023/12/05 00:16:53;;;;;;;20.98;14.23;;;1.80;1.00;;;;;;7382517;19;20053;-68
2023/12/05 00:19:23;;;;;;;19.60;14.52;;;1.80;1.00;;;;;;7383181;19;20015;-70
2023/12/05 00:21:53;;;;;;;24.08;15.00;;;1.80;1.00;;;;;;7384585;19;20025;-69
2023/12/05 00:24:23;;;;;;;22.98;15.10;;;1.80;1.00;;;;;;7383374;19;20022;-69
2023/12/05 00:26:53;;;;;;;20.10;14.95;;;1.80;1.00;;;;;;7382852;19;20018;-69
2023/12/05 00:29:26;;;;;;;18.85;15.55;;;1.90;4.10;;;;;;7382146;19;20022;-69
2023/12/05 00:31:56;;;;;;;21.35;14.45;;;1.90;3.50;;;;;;7384336;19;20014;-69
2023/12/05 00:34:26;;;;;;;21.80;15.23;;;1.90;5.00;;;;;;7385308;19;20027;-69
2023/12/05 00:36:56;;;;;;;19.90;13.98;;;1.90;9.90;;;;;;7383312;19;20018;-68
2023/12/05 00:39:26;;;;;;;20.45;14.50;;;1.90;12.50;;;;;;7383505;19;20026;-68
2023/12/05 00:41:56;;;;;;;22.10;14.43;;;1.90;15.80;;;;;;7382619;19;20014;-69
2023/12/05 00:44:29;;;;;;;19.77;14.75;;;1.90;18.30;;;;;;7382285;19;20080;-68
2023/12/05 00:47:00;;;;;;;20.15;13.95;;;1.90;23.00;;;;;;7382945;19;20016;-68
2023/12/05 00:49:30;;;;;;;22.13;14.45;;;2.00;21.30;;;;;;7383327;19;20010;-70
2023/12/05 00:52:00;;;;;;;20.63;13.77;;;2.00;17.50;;;;;;7384094;19;20021;-68
2023/12/05 00:54:30;;;;;;;18.98;13.77;;;2.00;18.60;;;;;;7381806;19;20406;-68
2023/12/05 00:57:00;;;;;;;16.75;12.68;;;2.00;19.50;;;;;;7379458;19;20023;-68
2023/12/05 00:59:32;;;;;;;18.23;12.82;;;2.10;22.40;;;;;;7382521;19;20018;-68
2023/12/05 01:02:02;;;;;;;17.50;12.77;;;2.10;23.80;;;;;;7382127;19;20509;-68
2023/12/05 01:04:32;;;;;;;16.25;12.15;;;2.20;18.50;;;;;;7377578;19;20018;-68
2023/12/05 01:07:04;;;;;;;17.70;13.02;;;2.10;17.90;;;;;;7380155;19;20081;-68
2023/12/05 01:09:34;;;;;;;17.38;12.52;;;2.10;21.20;;;;;;7381014;19;20098;-68
2023/12/05 01:12:04;;;;;;;17.27;12.60;;;2.10;22.10;;;;;;7382252;19;20018;-68
2023/12/05 01:14:37;;;;;;;18.80;11.40;;;2.10;26.10;;;;;;7381804;19;20030;-67
2023/12/05 01:17:07;;;;;;;17.58;11.98;;;2.10;37.20;;;;;;7380946;19;20014;-68
2023/12/05 01:19:38;;;;;;;15.07;11.10;;;2.20;40.10;;;;;;7382569;19;20017;-69
2023/12/05 01:22:08;;;;;;;15.52;11.23;;;2.10;42.10;;;;;;7381833;19;20021;-69
2023/12/05 01:24:38;;;;;;;14.02;11.20;;;2.20;48.70;;;;;;7381002;19;20081;-67
2023/12/05 01:27:08;;;;;;;14.57;10.63;;;2.10;50.80;;;;;;7378561;19;20039;-70
2023/12/05 01:29:40;;;;;;;15.40;11.00;;;2.10;56.40;;;;;;7378393;19;20487;-67
2023/12/05 01:32:11;;;;;;;11.70;9.30;;;2.10;68.20;;;;;;7379227;19;20021;-68
2023/12/05 01:34:41;;;;;;;14.00;9.68;;;2.20;79.20;;;;;;7382779;19;20018;-68
2023/12/05 01:37:11;;;;;;;18.15;10.25;;;2.20;84.60;;;;;;7382074;19;20014;-67
2023/12/05 01:39:43;;;;;;;12.00;9.15;;;2.20;91.50;;;;;;7378646;19;20010;-68
2023/12/05 01:42:16;;;;;;;14.07;9.13;;;2.30;93.10;;;;;;7376132;19;20027;-68
2023/12/05 01:44:48;;;;;;;10.55;8.88;;;2.30;96.10;;;;;;7378498;19;20010;-68
2023/12/05 01:47:19;;;;;;;14.23;9.40;;;2.20;94.90;;;;;;7380031;19;20006;-68
2023/12/05 01:49:49;;;;;;;13.80;9.57;;;2.30;99.90;;;;;;7380873;19;20078;-68
2023/12/05 01:52:20;;;;;;;10.27;7.35;;;2.40;99.90;;;;;;7381223;19;20126;-68
2023/12/05 01:54:50;;;;;;;10.65;7.63;;;2.40;99.90;;;;;;7380697;19;20011;-67
2023/12/05 01:57:21;;;;;;;11.18;7.50;;;2.40;99.90;;;;;;7380969;19;20094;-70
2023/12/05 01:59:54;;;;;;;11.60;7.82;;;2.40;99.90;;;;;;7381492;19;20010;-67
2023/12/05 02:02:25;;;;;;;11.43;7.97;;;2.30;99.90;;;;;;7381328;19;20019;-67
2023/12/05 02:04:55;;;;;;;13.05;8.98;;;2.30;99.90;;;;;;7380220;19;20003;-68
2023/12/05 02:07:26;;;;;;;11.18;8.45;;;2.30;99.90;;;;;;7379625;19;20014;-67
2023/12/05 02:09:56;;;;;;;10.88;8.05;;;2.40;99.90;;;;;;7379105;19;20017;-67
2023/12/05 02:12:26;;;;;;;14.38;8.60;;;2.40;99.90;;;;;;7379418;19;20017;-67
2023/12/05 02:14:59;;;;;;;11.77;8.80;;;2.30;99.90;;;;;;7379298;19;20074;-68
2023/12/05 02:17:35;;;;;;;11.63;8.07;;;2.30;99.90;;;;;;7380426;19;20015;-67
2023/12/05 02:20:13;;;;;;;10.57;7.70;;;2.40;99.90;;;;;;7380191;19;20094;-68
2023/12/05 02:23:18;;;;;;;10.52;7.57;;;2.50;99.90;;;;;;7381058;19;20018;-67
2023/12/05 02:25:53;;;;;;;;;;;2.40;99.90;;;;;;6867229;19;2003904;-68
2023/12/05 02:28:26;;;;;;;9.38;6.55;;;2.30;99.90;;;;;;7379853;19;19922;-67
2023/12/05 02:30:56;;;;;;;8.23;6.28;;;2.30;99.90;;;;;;7379207;19;20017;-68
2023/12/05 02:33:27;;;;;;;8.82;6.72;;;2.40;99.90;;;;;;7379681;19;20021;-68
2023/12/05 02:36:04;;;;;;;9.38;6.28;;;2.30;99.90;;;;;;7378211;19;20082;-68
2023/12/05 02:38:48;;;;;;;8.10;6.25;;;2.30;99.90;;;;;;7379303;19;20021;-68
2023/12/05 02:41:22;;;;;;;8.55;6.43;;;2.20;99.90;;;;;;7378030;19;20414;-68
2023/12/05 02:44:00;;;;;;;;;;;2.10;99.90;;;;;;7378981;19;20017;-68
2023/12/05 02:46:30;;;;;;;9.27;6.25;;;2.10;99.90;;;;;;7378869;19;19914;-68
2023/12/05 02:49:01;;;;;;;8.77;6.63;;;2.00;99.90;;;;;;7379324;19;20018;-67
2023/12/05 02:51:32;;;;;;;8.60;6.80;;;2.10;99.90;;;;;;7377443;19;20017;-68
2023/12/05 02:54:06;;;;;;;8.70;6.78;;;2.50;99.90;;;;;;7378317;19;20052;-68
2023/12/05 02:56:37;;;;;;;11.35;7.53;;;2.30;99.90;;;;;;7378965;19;20023;-68
2023/12/05 02:59:10;;;;;;;11.38;7.55;;;2.40;99.90;;;;;;7379592;19;20009;-68
2023/12/05 03:01:41;;;;;;;10.98;7.40;;;2.30;99.90;;;;;;7380378;19;20014;-68
2023/12/05 03:04:11;;;;;;;10.07;7.75;;;2.40;99.90;;;;;;7379460;19;20002;-68
2023/12/05 03:06:41;;;;;;;9.82;7.55;;;2.40;99.90;;;;;;7377614;19;20479;-69
2023/12/05 03:09:12;;;;;;;11.80;7.50;;;2.40;99.90;;;;;;7374646;19;20006;-69
2023/12/05 03:11:42;;;;;;;10.30;6.75;;;2.30;99.90;;;;;;7380036;19;20015;-69
2023/12/05 03:14:18;;;;;;;8.95;6.97;;;2.40;99.90;;;;;;7379220;19;20014;-68
2023/12/05 03:16:48;;;;;;;9.70;7.22;;;2.50;99.90;;;;;;7375536;19;20029;-67
2023/12/05 03:19:19;;;;;;;12.25;7.30;;;2.60;99.90;;;;;;7378598;19;20014;-67
2023/12/05 03:21:49;;;;;;;8.82;6.93;;;2.50;99.90;;;;;;7378347;19;20021;-67
2023/12/05 03:24:19;;;;;;;8.57;6.50;;;2.60;99.90;;;;;;7377091;19;20024;-67
2023/12/05 03:26:49;;;;;;;8.80;7.00;;;2.70;99.90;;;;;;7376892;19;20396;-68
2023/12/05 03:29:22;;;;;;;10.05;7.18;;;2.60;99.90;;;;;;7378396;19;20038;-67
2023/12/05 03:31:52;;;;;;;10.07;7.65;;;2.60;99.90;;;;;;7377306;19;20007;-68
2023/12/05 03:34:22;;;;;;;10.32;7.03;;;2.60;99.90;;;;;;7376861;19;20361;-68
2023/12/05 03:36:52;;;;;;;10.50;6.90;;;2.70;99.90;;;;;;7377459;19;20015;-68
2023/12/05 03:39:22;;;;;;;8.73;6.78;;;2.60;99.90;;;;;;7378518;19;20018;-67
2023/12/05 03:41:52;;;;;;;9.93;7.32;;;2.60;99.90;;;;;;7377179;19;20127;-67
2023/12/05 03:44:25;;;;;;;10.43;6.85;;;2.50;99.90;;;;;;7378349;19;20106;-67
2023/12/05 03:46:55;;;;;;;9.70;7.47;;;2.50;99.90;;;;;;7376676;19;20367;-68
2023/12/05 03:49:28;;;;;;;11.63;7.97;;;2.70;99.90;;;;;;7377473;19;20010;-68
2023/12/05 03:52:01;;;;;;;11.20;7.47;;;2.60;99.90;;;;;;7377001;19;20051;-67
2023/12/05 03:54:31;;;;;;;9.73;7.10;;;2.70;99.90;;;;;;7376534;19;20015;-67
2023/12/05 03:57:01;;;;;;;9.88;7.00;;;2.70;99.90;;;;;;7376506;19;20034;-69
2023/12/05 03:59:34;;;;;;;10.57;7.72;;;2.50;99.90;;;;;;7377129;19;20450;-68
2023/12/05 04:02:03;;;;;;;12.75;7.85;;;2.40;99.90;;;;;;7374277;19;20022;-68
2023/12/05 04:04:33;;;;;;;7.97;6.78;;;2.40;99.90;;;;;;7382299;19;20053;-69
2023/12/05 04:07:04;;;;;;;10.77;7.22;;;2.40;99.90;;;;;;7382951;19;20436;-68
2023/12/05 04:09:34;;;;;;;11.90;7.15;;;2.40;99.90;;;;;;7383929;19;20009;-69
2023/12/05 04:12:05;;;;;;;9.85;7.07;;;2.50;99.90;;;;;;7383193;19;20030;-68
2023/12/05 04:14:38;;;;;;;12.35;8.18;;;2.50;99.90;;;;;;7383054;19;20010;-69
2023/12/05 04:17:08;;;;;;;10.65;7.28;;;2.50;99.90;;;;;;7385068;19;20464;-69
2023/12/05 04:19:38;;;;;;;9.48;6.70;;;2.50;99.90;;;;;;7383980;19;25725;-68
2023/12/05 04:22:08;;;;;;;11.00;6.47;;;2.50;99.90;;;;;;7382515;19;20212;-67
2023/12/05 04:24:38;;;;;;;11.68;7.28;;;2.50;99.90;;;;;;7382637;19;21237;-67
2023/12/05 04:27:08;;;;;;;9.27;6.60;;;2.60;99.90;;;;;;7381530;19;23816;-67
2023/12/05 04:29:42;;;;;;;9.57;6.95;;;2.60;99.90;;;;;;7383147;19;22866;-68
2023/12/05 04:32:13;;;;;;;9.40;6.72;;;2.70;99.90;;;;;;7378335;19;20051;-68
2023/12/05 04:34:44;;;;;;;9.80;6.80;;;2.60;99.90;;;;;;7380182;19;20632;-68
2023/12/05 04:37:14;;;;;;;12.13;6.82;;;2.50;99.90;;;;;;7376259;19;20015;-68
2023/12/05 04:39:44;;;;;;;11.02;7.07;;;2.40;99.90;;;;;;7383264;19;20011;-68
2023/12/05 04:42:14;;;;;;;14.65;8.35;;;2.50;99.90;;;;;;7382044;19;20035;-68
2023/12/05 04:44:47;;;;;;;10.52;7.45;;;2.50;99.90;;;;;;7381698;19;20013;-68
2023/12/05 04:47:17;;;;;;;10.73;7.90;;;2.50;99.90;;;;;;7381291;19;20022;-68
2023/12/05 04:49:47;;;;;;;11.93;8.40;;;2.50;99.90;;;;;;7379226;19;20018;-69
2023/12/05 04:52:18;;;;;;;12.88;8.00;;;2.50;99.90;;;;;;7381429;19;20010;-69
2023/12/05 04:54:48;;;;;;;10.32;7.22;;;2.50;99.90;;;;;;7382111;19;20024;-69
2023/12/05 04:57:18;;;;;;;8.60;7.07;;;2.50;99.90;;;;;;7381095;19;20006;-68
2023/12/05 04:59:50;;;;;;;10.75;6.53;;;2.50;99.90;;;;;;7382832;19;20023;-67
2023/12/05 05:02:20;;;;;;;9.45;5.97;;;2.50;99.90;;;;;;7379455;19;20350;-67
2023/12/05 05:04:50;;;;;;;8.63;5.13;;;2.60;99.90;;;;;;7378517;19;20010;-67
2023/12/05 05:07:20;;;;;;;8.68;4.53;;;2.70;99.90;;;;;;7379205;19;20083;-68
2023/12/05 05:09:51;;;;;;;7.47;4.05;;;3.00;99.90;;;;;;7380872;19;20007;-68
2023/12/05 05:12:22;;;;;;;9.15;4.22;;;3.00;99.90;;;;;;7382271;19;20014;-67
2023/12/05 05:14:54;;;;;;;4.78;3.13;;;3.10;99.90;;;;;;7379482;19;20026;-68
2023/12/05 05:17:25;;;;;;;4.70;3.45;;;3.10;99.90;;;;;;7380835;19;20920;-68
2023/12/05 05:19:55;;;;;;;4.57;3.00;;;3.20;99.90;;;;;;7380176;19;20098;-68
2023/12/05 05:22:25;;;;;;;4.95;2.95;;;3.50;99.90;;;;;;7380329;19;20017;-68
2023/12/05 05:24:55;;;;;;;5.05;2.85;;;3.40;97.50;;;;;;7380324;19;20006;-68
2023/12/05 05:27:25;;;;;;;6.68;3.13;;;3.30;95.10;;;;;;7378367;19;20014;-68
2023/12/05 05:29:58;;;;;;;7.18;2.85;;;3.30;95.10;;;;;;7378774;19;20035;-68
2023/12/05 05:32:28;;;;;;;4.72;2.83;;;3.20;87.70;;;;;;7377387;19;20014;-68
2023/12/05 05:34:58;;;;;;;4.18;2.50;;;3.50;84.60;;;;;;7378314;19;20525;-67
2023/12/05 05:37:28;;;;;;;3.55;2.60;;;3.30;62.20;;;;;;7377953;19;20022;-68
2023/12/05 05:39:58;;;;;;;5.13;2.78;;;3.60;70.80;;;;;;7377415;19;20049;-67
2023/12/05 05:42:28;;;;;;;4.97;2.53;;;3.70;46.30;;;;;;7380051;19;20481;-68
2023/12/05 05:45:02;;;;;;;4.10;2.40;;;3.70;36.40;;;;;;7379954;19;20036;-69
2023/12/05 05:47:32;;;;;;;2.88;2.00;;;3.60;30.30;;;;;;7381044;19;20024;-68
2023/12/05 05:50:03;;;;;;;3.17;2.03;;;3.70;36.50;;;;;;7380532;19;20023;-68
2023/12/05 05:52:33;;;;;;;3.72;2.03;;;3.90;24.10;;;;;;7380613;19;20363;-68
2023/12/05 05:55:03;;;;;;;3.58;1.70;;;4.00;11.10;;;;;;7378661;19;20022;-68
2023/12/05 05:57:36;;;;;;;3.28;1.90;;;4.20;5.60;;;;;;7380387;19;20018;-67
2023/12/05 06:00:11;;;;;;;3.13;1.77;;;4.10;3.90;;;;;;7380246;19;20039;-68
2023/12/05 06:02:41;;;;;;;4.40;1.77;;;4.10;1.00;;;;;;7380174;19;20018;-68
2023/12/05 06:05:12;;;;;;;3.58;1.45;;;4.10;1.00;;;;;;7380120;19;20022;-68
2023/12/05 06:07:42;;;;;;;4.88;2.15;;;4.20;3.00;;;;;;7379937;19;20021;-67
2023/12/05 06:10:12;;;;;;;4.68;2.10;;;4.10;1.00;;;;;;7381079;19;20094;-68
2023/12/05 06:12:42;;;;;;;5.32;1.63;;;3.90;1.10;;;;;;7380859;19;20360;-67
2023/12/05 06:15:17;;;;;;;3.63;1.90;;;3.80;8.30;;;;;;7378957;19;20046;-67
2023/12/05 06:17:47;;;;;;;4.35;2.15;;;3.80;17.30;;;;;;7380036;19;20003;-67
2023/12/05 06:20:17;;;;;;;2.45;1.70;;;3.80;21.30;;;;;;7378268;19;20408;-68
2023/12/05 06:22:47;;;;;;;8.63;4.97;;;3.70;15.40;;;;;;7379311;19;20077;-67
2023/12/05 06:25:17;;;;;;;4.93;3.13;;;3.60;16.70;;;;;;7379033;19;20048;-68
2023/12/05 06:27:48;;;;;;;6.97;3.17;;;3.50;22.40;;;;;;7378622;19;20081;-68
2023/12/05 06:30:20;;;;;;;5.88;3.20;;;3.50;28.40;;;;;;7378811;19;20070;-68
2023/12/05 06:32:56;;;;;;;5.57;3.35;;;3.40;29.00;;;;;;7377215;19;20021;-67
2023/12/05 06:35:26;;;;;;;6.82;3.40;;;3.40;34.90;;;;;;7376209;19;20127;-67
2023/12/05 06:37:56;;;;;;;6.47;3.97;;;3.20;42.00;;;;;;7378748;19;20539;-67
2023/12/05 06:40:26;;;;;;;5.68;4.00;;;3.00;48.20;;;;;;7380018;19;20135;-66
2023/12/05 06:42:56;;;;;;;6.50;4.25;;;2.90;55.70;;;;;;7378955;19;20014;-67
2023/12/05 06:45:29;;;;;;;7.20;4.35;;;2.80;66.70;;;;;;7378899;19;20014;-68
2023/12/05 06:47:59;;;;;;;7.55;4.88;;;2.70;71.40;;;;;;7377773;19;20403;-68
2023/12/05 06:50:32;;;;;;;9.35;5.15;;;2.60;84.50;;;;;;7377190;19;20035;-67
2023/12/05 06:53:04;;;;;;;8.90;5.10;;;2.60;92.80;;;;;;7374547;19;20010;-67
2023/12/05 06:55:34;;;;;;;7.03;4.85;;;2.60;99.90;;;;;;7374088;19;20010;-68
2023/12/05 06:58:05;;;;;;;9.18;5.32;;;2.60;99.90;;;;;;7375057;19;20067;-70
2023/12/05 07:00:38;;;;;;;8.63;5.20;;;2.50;99.90;;;;;;7376650;19;20014;-67
2023/12/05 07:03:08;;;;;;;12.07;6.05;;;2.50;99.90;;;;;;7375661;19;20087;-68
2023/12/05 07:05:38;;;;;;;15.95;5.25;;;2.70;99.90;;;;;;7374450;19;20022;-67
2023/12/05 07:08:09;;;;;;;6.65;5.00;;;2.60;99.90;;;;;;7376355;19;20025;-68
2023/12/05 07:10:39;;;;;;;8.52;5.18;;;2.80;99.90;;;;;;7375075;19;20089;-68
2023/12/05 07:13:09;;;;;;;10.80;4.97;;;2.70;99.90;;;;;;7374344;19;20014;-67
2023/12/05 07:15:42;;;;;;;9.18;5.78;;;2.70;99.90;;;;;;7371188;19;20022;-67
2023/12/05 07:18:12;;;;;;;8.60;5.70;;;2.80;99.90;;;;;;7371354;19;20006;-67
2023/12/05 07:20:42;;;;;;;9.25;5.45;;;2.70;99.90;;;;;;7372349;19;20019;-67
2023/12/05 07:23:12;;;;;;;8.85;4.68;;;2.70;99.90;;;;;;7374539;19;20086;-67
2023/12/05 07:25:42;;;;;;;11.15;4.80;;;2.80;99.90;;;;;;7373774;19;20318;-67
2023/12/05 07:28:12;;;;;;;7.88;4.30;;;2.90;99.90;;;;;;7372516;19;20002;-67
2023/12/05 07:30:44;;;;;;;10.07;4.55;;;2.80;99.90;;;;;;7373462;19;20007;-68
2023/12/05 07:33:14;;;;;;;10.23;4.82;;;2.80;99.90;;;;;;7372925;19;20114;-67
2023/12/05 07:35:45;;;;;;;14.68;6.22;;;2.80;99.90;;;;;;7371571;19;20007;-67
2023/12/05 07:38:15;;;;;;;12.68;6.20;;;3.00;99.90;;;;;;7377137;19;20010;-67
2023/12/05 07:40:45;;;;;;;13.00;6.13;;;3.10;99.90;;;;;;7379348;19;20336;-68
2023/12/05 07:43:18;;;;;;;12.10;6.43;;;3.20;98.90;;;;;;7379883;19;20017;-68
2023/12/05 07:45:52;;;;;;;9.52;5.07;;;3.20;90.30;;;;;;7379616;19;20051;-68
2023/12/05 07:48:22;;;;;;;10.02;4.72;;;3.30;84.30;;;;;;7378790;19;20010;-67
2023/12/05 07:50:52;;;;;;;9.52;4.85;;;3.40;70.20;;;;;;7380123;19;20017;-68
2023/12/05 07:53:22;;;;;;;7.90;4.45;;;3.50;64.10;;;;;;7379322;19;20039;-68
2023/12/05 07:55:52;;;;;;;6.20;3.83;;;3.50;55.10;;;;;;7378862;19;20025;-68
2023/12/05 07:58:22;;;;;;;8.00;3.95;;;3.60;47.10;;;;;;7380393;19;20023;-67
2023/12/05 08:00:55;;;;;;;5.70;3.08;;;3.70;39.90;;;;;;7379217;19;20074;-67
2023/12/05 08:03:26;;;;;;;8.32;2.95;;;3.80;30.20;;;;;;7378818;19;20052;-68
2023/12/05 08:05:56;;;;;;;5.93;3.58;;;3.80;22.40;;;;;;7379518;19;20018;-68
2023/12/05 08:08:24;;;;;;;6.50;2.75;;;3.90;18.20;;;;;;7381030;19;20014;-68
2023/12/05 08:10:54;;;;;;;9.82;3.83;;;3.90;11.10;;;;;;7379591;19;20002;-68
2023/12/05 08:13:24;;;;;;;6.93;3.17;;;4.00;6.40;;;;;;7379879;19;20010;-67
2023/12/05 08:15:57;;;;;;;3.75;2.65;;;4.00;5.30;;;;;;7377912;19;20006;-67
2023/12/05 08:18:27;;;;;;;6.07;3.28;;;4.10;1.00;;;;;;7381355;19;20032;-68
2023/12/05 08:20:58;;;;;;;5.70;3.13;;;4.10;1.00;;;;;;7380992;19;20010;-67
2023/12/05 08:23:28;;;;;;;4.20;2.47;;;4.20;1.00;;;;;;7379365;19;20017;-68
2023/12/05 08:25:58;;;;;;;4.75;2.53;;;4.20;1.00;;;;;;7379571;19;20006;-67
2023/12/05 08:28:29;;;;;;;4.55;2.22;;;4.60;1.00;;;;;;7380520;19;20014;-68
2023/12/05 08:31:02;;;;;;;5.55;2.55;;;4.60;1.00;;;;;;7378061;19;20007;-68
2023/12/05 08:33:32;;;;;;;5.38;2.65;;;4.70;1.00;;;;;;7378869;19;20017;-67
2023/12/05 08:36:04;;;;;;;6.47;2.80;;;4.70;1.00;;;;;;7378161;19;20007;-67
2023/12/05 08:38:34;;;;;;;5.18;3.08;;;4.70;1.00;;;;;;7379931;19;20014;-68
2023/12/05 08:41:04;;;;;;;7.57;2.88;;;4.80;1.00;;;;;;7380209;19;20010;-68
2023/12/05 08:43:34;;;;;;;6.57;2.70;;;4.80;1.00;;;;;;7378438;19;20083;-68
2023/12/05 08:46:07;;;;;;;6.38;2.92;;;4.80;1.00;;;;;;7376582;19;20022;-68
2023/12/05 08:48:40;;;;;;;7.88;2.90;;;4.80;1.00;;;;;;7375891;19;20376;-69
2023/12/05 08:51:10;;;;;;;7.53;2.60;;;4.90;1.00;;;;;;7377755;19;20073;-68
2023/12/05 08:53:43;;;;;;;8.77;3.53;;;5.00;1.00;;;;;;7379548;19;20082;-68
2023/12/05 08:56:14;;;;;;;5.50;3.15;;;5.20;1.00;;;;;;7378099;19;19999;-68
2023/12/05 08:58:44;;;;;;;8.65;3.83;;;5.30;1.00;;;;;;7380985;19;20014;-67
2023/12/05 09:01:16;;;;;;;8.07;4.10;;;5.40;1.00;;;;;;7379692;19;20014;-68
2023/12/05 09:03:46;;;;;;;11.40;4.95;;;5.40;1.00;;;;;;7379244;19;20014;-68
2023/12/05 09:06:16;;;;;;;7.20;4.25;;;5.40;1.00;;;;;;7376478;19;20378;-67
2023/12/05 09:08:47;;;;;;;6.50;3.70;;;5.50;1.00;;;;;;7378363;19;20010;-66
2023/12/05 09:11:17;;;;;;;5.80;2.72;;;5.40;1.00;;;;;;7378109;19;20015;-68
2023/12/05 09:13:47;;;;;;;3.10;1.88;;;5.30;1.00;;;;;;7377411;19;20011;-67
2023/12/05 09:16:20;;;;;;;4.03;1.52;;;5.30;1.00;;;;;;7375510;19;20052;-68
2023/12/05 09:18:51;;;;;;;2.80;1.42;;;5.40;1.00;;;;;;7377334;19;20460;-68
2023/12/05 09:21:21;;;;;;;4.07;1.67;;;5.40;1.00;;;;;;7378305;19;20431;-68
2023/12/05 09:23:51;;;;;;;3.53;1.13;;;5.50;1.00;;;;;;7377977;19;20400;-68
2023/12/05 09:26:21;;;;;;;3.28;1.25;;;5.60;1.00;;;;;;7377868;19;20006;-68
2023/12/05 09:28:52;;;;;;;3.45;1.77;;;5.70;1.00;;;;;;7378612;19;20401;-69
2023/12/05 09:31:26;;;;;;;3.10;1.58;;;5.70;1.00;;;;;;7378211;19;20030;-68
2023/12/05 09:33:56;;;;;;;2.20;1.20;;;5.80;1.00;;;;;;7377282;19;20021;-68
2023/12/05 09:36:26;;;;;;;1.88;1.10;;;5.80;1.00;;;;;;7378105;19;20527;-68
2023/12/05 09:38:56;;;;;;;2.35;1.10;;;5.90;1.00;;;;;;7378226;19;20483;-69
2023/12/05 09:41:27;;;;;;;3.33;1.05;;;6.00;1.00;;;;;;7377633;19;20413;-68
2023/12/05 09:44:03;;;;;;;2.67;1.10;;;6.00;1.00;;;;;;7374717;19;20490;-69
2023/12/05 09:46:39;;;;;;;3.53;1.05;;;6.10;1.00;;;;;;7377444;19;20018;-69
2023/12/05 09:49:18;;;;;;;;;;;6.20;1.00;;;;;;6866823;19;2003904;-68
2023/12/05 09:51:49;;;;;;;10.23;5.72;;;6.30;1.00;;;;;;7376362;19;19918;-68
2023/12/05 09:54:19;;;;;;;2.40;1.38;;;6.30;1.00;;;;;;7375510;19;20138;-68
2023/12/05 09:56:50;;;;;;;5.60;1.48;;;6.30;1.00;;;;;;7375121;19;20039;-68
2023/12/05 09:59:22;;;;;;;2.15;1.08;;;6.30;1.00;;;;;;7376480;19;20007;-68
2023/12/05 10:02:01;;;;;;;5.53;1.25;;;6.30;1.00;;;;;;7375997;19;20010;-69
2023/12/05 10:04:31;;;;;;;2.53;1.08;;;6.40;1.00;;;;;;7370818;19;20446;-69
2023/12/05 10:07:02;;;;;;;2.13;1.00;;;6.40;1.00;;;;;;7376972;19;20536;-68
2023/12/05 10:09:34;;;;;;;2.75;1.20;;;6.30;1.00;;;;;;7377891;19;20459;-69
2023/12/05 10:12:05;;;;;;;2.08;1.10;;;6.30;1.00;;;;;;7376338;19;20473;-67
2023/12/05 10:14:36;;;;;;;2.22;1.20;;;6.40;1.00;;;;;;7373373;19;20006;-68
2023/12/05 10:17:09;;;;;;;4.53;1.30;;;6.40;1.00;;;;;;7374852;19;20029;-68
2023/12/05 10:19:39;;;;;;;4.20;1.38;;;6.20;1.00;;;;;;7375709;19;20026;-67
2023/12/05 10:22:10;;;;;;;2.78;1.10;;;6.10;1.00;;;;;;7375910;19;20010;-68
2023/12/05 10:24:39;;;;;;;3.97;0.90;;;6.00;1.00;;;;;;7375013;19;20014;-68
2023/12/05 10:27:10;;;;;;;3.75;1.30;;;6.00;1.00;;;;;;7374647;19;20007;-68
2023/12/05 10:29:42;;;;;;;2.35;1.65;;;5.90;1.00;;;;;;7376958;19;20581;-68
2023/12/05 10:32:16;;;;;;;5.75;2.55;;;6.00;1.00;;;;;;7376350;19;20024;-68
2023/12/05 10:34:50;;;;;;;3.67;1.05;;;6.10;1.00;;;;;;7375349;19;20006;-68
2023/12/05 10:37:24;;;;;;;2.67;1.23;;;6.20;1.00;;;;;;7374798;19;20005;-67
2023/12/05 10:39:55;;;;;;;2.83;1.13;;;6.10;1.00;;;;;;7377408;19;20011;-68
2023/12/05 10:42:28;;;;;;;2.45;0.95;;;6.20;1.00;;;;;;7375850;19;20464;-68
2023/12/05 10:44:58;;;;;;;2.03;1.00;;;6.30;1.00;;;;;;7374433;19;20010;-67
2023/12/05 10:47:31;;;;;;;2.40;1.38;;;6.50;1.00;;;;;;7373737;19;20409;-68
2023/12/05 10:50:02;;;;;;;3.17;1.30;;;6.50;1.00;;;;;;7375350;19;20015;-68
2023/12/05 10:52:34;;;;;;;1.95;1.35;;;6.70;1.00;;;;;;7376443;19;20107;-68
2023/12/05 10:55:04;;;;;;;2.20;1.00;;;6.80;1.00;;;;;;7373902;19;20039;-68
2023/12/05 10:57:36;;;;;;;3.72;1.15;;;6.90;1.00;;;;;;7376146;19;20491;-68
2023/12/05 11:00:08;;;;;;;2.13;1.05;;;7.00;1.00;;;;;;7375175;19;20010;-68
2023/12/05 11:02:40;;;;;;;3.90;1.20;;;7.10;1.00;;;;;;7375996;19;20007;-69
2023/12/05 11:05:11;;;;;;;3.30;0.90;;;7.10;1.00;;;;;;7373884;19;20007;-68
2023/12/05 11:07:41;;;;;;;2.40;1.17;;;7.10;1.00;;;;;;7375941;19;20018;-69
2023/12/05 11:10:11;;;;;;;2.65;1.40;;;7.20;1.00;;;;;;7374352;19;20728;-68
2023/12/05 11:12:43;;;;;;;4.68;1.75;;;7.30;1.00;;;;;;7373130;19;20007;-69
2023/12/05 11:15:18;;;;;;;2.95;1.25;;;7.30;1.00;;;;;;7374337;19;20021;-69
2023/12/05 11:17:52;;;;;;;;;;;7.20;1.00;;;;;;7376617;19;20462;-68
2023/12/05 11:20:31;;;;;;;3.67;1.30;;;7.20;1.00;;;;;;7378687;19;19925;-66
2023/12/05 11:23:22;;;;;;;3.05;1.15;;;7.20;1.00;;;;;;7374935;19;20049;-68
2023/12/05 11:26:04;;;;;;;2.30;1.00;;;7.20;1.00;;;;;;6863012;19;2004049;-68
2023/12/05 11:28:58;;;;;;;2.28;1.20;;;7.10;1.00;;;;;;7375627;19;20014;-70
2023/12/05 11:31:36;;;;;;;2.42;0.98;;;7.10;1.00;;;;;;6865694;19;2004001;-68
2023/12/05 11:34:43;;;;;;;2.67;1.08;;;7.20;1.00;;;;;;7375557;19;20014;-69
2023/12/05 11:37:29;;;;;;;4.35;1.20;;;7.20;1.00;;;;;;6759878;19;2005098;-68
2023/12/05 11:39:59;;;;;;;3.83;1.38;;;7.20;1.00;;;;;;7374797;19;20376;-67
2023/12/05 11:42:34;;;;;;;2.35;1.00;;;7.20;1.00;;;;;;7374008;19;20021;-68
2023/12/05 11:45:23;;;;;;;2.10;1.10;;;7.20;1.00;;;;;;7374035;19;20043;-68
2023/12/05 11:47:55;;;;;;;2.20;1.20;;;7.20;1.00;;;;;;6863564;19;2005102;-67
2023/12/05 11:50:27;;;;;;;2.63;1.35;;;7.30;1.00;;;;;;7373729;19;20514;-69
2023/12/05 11:52:58;;;;;;;2.72;1.02;;;7.30;1.00;;;;;;7375304;19;20022;-67
2023/12/05 11:55:28;;;;;;;3.13;1.10;;;7.30;1.00;;;;;;7374207;19;20463;-67
2023/12/05 11:57:59;;;;;;;1.40;0.85;;;7.20;1.00;;;;;;7373238;19;20014;-68
2023/12/05 12:00:29;;;;;;;1.52;1.08;;;7.10;1.00;;;;;;7373122;19;20031;-67
2023/12/05 12:03:01;;;;;;;2.50;1.20;;;7.00;1.00;;;;;;7373685;19;20007;-68
2023/12/05 12:05:35;;;;;;;4.30;1.10;;;7.10;1.00;;;;;;7373659;19;20011;-68
2023/12/05 12:08:07;;;;;;;;;;;7.10;1.00;;;;;;7375091;19;20745;-68
2023/12/05 12:10:37;;;;;;;3.13;1.42;;;7.20;1.00;;;;;;7374034;19;19948;-68
2023/12/05 12:13:07;;;;;;;2.88;0.98;;;7.30;1.00;;;;;;7372298;19;20010;-68
2023/12/05 12:15:39;;;;;;;2.80;1.20;;;7.40;1.00;;;;;;7372427;19;20014;-68
2023/12/05 12:18:09;;;;;;;1.80;1.10;;;7.50;1.00;;;;;;7370718;19;20542;-68
2023/12/05 12:20:42;;;;;;;2.65;1.27;;;7.70;1.00;;;;;;7373882;19;20022;-68
2023/12/05 12:23:12;;;;;;;2.47;1.15;;;7.90;1.00;;;;;;7375176;19;20338;-68
2023/12/05 12:25:53;;;;;;;2.58;1.02;;;7.80;1.00;;;;;;7378216;19;20023;-68
2023/12/05 12:28:28;;;;;;;2.58;1.33;;;7.70;1.00;;;;;;7378456;19;20485;-68
2023/12/05 12:30:58;;;;;;;2.20;1.08;;;7.70;1.00;;;;;;7378995;19;20492;-68
2023/12/05 12:33:38;;;;;;;3.60;0.90;;;7.70;1.00;;;;;;7378764;19;20006;-68
2023/12/05 12:36:12;;;;;;;1.52;1.00;;;7.80;1.00;;;;;;7378652;19;20007;-67
2023/12/05 12:38:44;;;;;;;2.88;1.02;;;7.80;1.00;;;;;;7378088;19;20018;-68
2023/12/05 12:41:14;;;;;;;2.00;0.95;;;7.90;1.00;;;;;;7379500;19;20007;-68
2023/12/05 12:43:45;;;;;;;1.40;1.00;;;8.00;1.00;;;;;;7379947;19;20471;-66
2023/12/05 12:46:15;;;;;;;2.13;0.98;;;8.10;1.00;;;;;;7378561;19;20010;-69
2023/12/05 12:48:46;;;;;;;2.88;0.82;;;8.10;1.00;;;;;;7373367;19;20011;-68
2023/12/05 12:51:20;;;;;;;2.40;1.10;;;8.20;1.00;;;;;;7379345;19;20562;-68
2023/12/05 12:53:52;;;;;;;3.42;1.05;;;8.20;1.00;;;;;;7377544;19;20010;-68
2023/12/05 12:56:23;;;;;;;3.80;1.10;;;8.30;1.00;;;;;;7377472;19;20500;-68
2023/12/05 12:58:53;;;;;;;3.28;0.70;;;8.40;1.00;;;;;;7377690;19;20041;-68
2023/12/05 13:01:25;;;;;;;9.57;5.97;;;8.50;1.00;;;;;;7378251;19;20039;-68
2023/12/05 13:03:56;;;;;;;2.45;1.10;;;8.50;1.00;;;;;;7378110;19;20006;-67
2023/12/05 13:06:37;;;;;;;3.28;0.55;;;8.40;1.00;;;;;;7377748;19;20019;-68
2023/12/05 13:09:15;;;;;;;1.50;0.63;;;8.30;1.00;;;;;;7377628;19;20549;-67
2023/12/05 13:11:46;;;;;;;2.20;1.15;;;8.30;1.00;;;;;;7376757;19;20039;-68
2023/12/05 13:14:19;;;;;;;1.65;0.70;;;8.30;1.00;;;;;;7377173;19;20090;-67
2023/12/05 13:16:49;;;;;;;2.05;0.82;;;8.20;1.00;;;;;;7380305;19;20065;-67
2023/12/05 13:19:27;;;;;;;1.30;0.85;;;8.20;1.00;;;;;;7378138;19;20082;-67
2023/12/05 13:22:00;;;;;;;4.13;1.10;;;8.20;1.00;;;;;;7377912;19;20006;-68